sensor_id;sensor_type;location;lat;lon;timestamp;temperature;humidity
53146;DHT22;39042;53.150;5.898;2023-06-05T00:02:15;10.50;99.90
53146;DHT22;39042;53.150;5.898;2023-06-05T00:04:41;10.60;99.90
53146;DHT22;39042;53.150;5.898;2023-06-05T00:07:09;10.60;99.90
53146;DHT22;39042;53.150;5.898;2023-06-05T00:09:35;10.60;99.90
53146;DHT22;39042;53.150;5.898;2023-06-05T00:12:01;10.60;99.90
53146;DHT22;39042;53.150;5.898;2023-06-05T00:14:27;10.70;99.90
53146;DHT22;39042;53.150;5.898;2023-06-05T00:16:53;10.70;99.90
53146;DHT22;39042;53.150;5.898;2023-06-05T00:19:21;10.70;99.90
53146;DHT22;39042;53.150;5.898;2023-06-05T00:21:47;10.80;99.90
53146;DHT22;39042;53.150;5.898;2023-06-05T00:24:16;10.80;99.90
53146;DHT22;39042;53.150;5.898;2023-06-05T00:26:42;10.80;99.90
53146;DHT22;39042;53.150;5.898;2023-06-05T00:29:07;10.80;99.90
53146;DHT22;39042;53.150;5.898;2023-06-05T00:31:33;10.80;99.90
53146;DHT22;39042;53.150;5.898;2023-06-05T00:33:59;10.90;99.90
53146;DHT22;39042;53.150;5.898;2023-06-05T00:36:25;10.90;99.90
53146;DHT22;39042;53.150;5.898;2023-06-05T00:38:51;10.90;99.90
53146;DHT22;39042;53.150;5.898;2023-06-05T00:41:18;10.90;99.90
53146;DHT22;39042;53.150;5.898;2023-06-05T00:43:44;10.90;99.90
53146;DHT22;39042;53.150;5.898;2023-06-05T00:46:10;10.90;99.90
53146;DHT22;39042;53.150;5.898;2023-06-05T00:48:37;10.90;99.90
53146;DHT22;39042;53.150;5.898;2023-06-05T00:51:03;10.90;99.90
53146;DHT22;39042;53.150;5.898;2023-06-05T00:53:32;10.90;99.90
53146;DHT22;39042;53.150;5.898;2023-06-05T00:56:00;11.00;99.90
53146;DHT22;39042;53.150;5.898;2023-06-05T00:58:29;11.00;99.90
53146;DHT22;39042;53.150;5.898;2023-06-05T01:00:57;11.00;99.90
53146;DHT22;39042;53.150;5.898;2023-06-05T01:03:23;11.00;99.90
53146;DHT22;39042;53.150;5.898;2023-06-05T01:05:50;11.10;99.90
53146;DHT22;39042;53.150;5.898;2023-06-05T01:08:17;11.10;99.90
53146;DHT22;39042;53.150;5.898;2023-06-05T01:10:47;11.10;99.90
53146;DHT22;39042;53.150;5.898;2023-06-05T01:13:24;11.10;99.90
53146;DHT22;39042;53.150;5.898;2023-06-05T01:15:52;11.10;99.90
53146;DHT22;39042;53.150;5.898;2023-06-05T01:18:21;11.10;99.90
53146;DHT22;39042;53.150;5.898;2023-06-05T01:20:49;11.10;99.90
53146;DHT22;39042;53.150;5.898;2023-06-05T01:23:16;11.20;99.90
53146;DHT22;39042;53.150;5.898;2023-06-05T01:25:42;11.10;99.90
53146;DHT22;39042;53.150;5.898;2023-06-05T01:28:15;11.20;99.90
53146;DHT22;39042;53.150;5.898;2023-06-05T01:31:08;11.20;99.90
53146;DHT22;39042;53.150;5.898;2023-06-05T01:33:44;11.20;99.90
53146;DHT22;39042;53.150;5.898;2023-06-05T01:36:15;11.20;99.90
53146;DHT22;39042;53.150;5.898;2023-06-05T01:38:43;11.20;99.90
53146;DHT22;39042;53.150;5.898;2023-06-05T01:41:10;11.20;99.90
53146;DHT22;39042;53.150;5.898;2023-06-05T01:43:37;11.20;99.90
53146;DHT22;39042;53.150;5.898;2023-06-05T01:46:05;11.20;99.90
53146;DHT22;39042;53.150;5.898;2023-06-05T01:48:33;11.20;99.90
53146;DHT22;39042;53.150;5.898;2023-06-05T01:51:02;11.20;99.90
53146;DHT22;39042;53.150;5.898;2023-06-05T01:53:29;11.20;99.90
53146;DHT22;39042;53.150;5.898;2023-06-05T01:55:55;11.20;99.90
53146;DHT22;39042;53.150;5.898;2023-06-05T01:58:24;11.20;99.90
53146;DHT22;39042;53.150;5.898;2023-06-05T02:00:51;11.20;99.90
53146;DHT22;39042;53.150;5.898;2023-06-05T02:03:18;11.20;99.90
53146;DHT22;39042;53.150;5.898;2023-06-05T02:05:44;11.20;99.90
53146;DHT22;39042;53.150;5.898;2023-06-05T02:08:11;11.20;99.90
53146;DHT22;39042;53.150;5.898;2023-06-05T02:10:38;11.20;99.90
53146;DHT22;39042;53.150;5.898;2023-06-05T02:13:09;11.20;99.90
53146;DHT22;39042;53.150;5.898;2023-06-05T02:15:35;11.20;99.90
53146;DHT22;39042;53.150;5.898;2023-06-05T02:18:02;11.10;99.90
53146;DHT22;39042;53.150;5.898;2023-06-05T02:20:31;11.20;99.90
53146;DHT22;39042;53.150;5.898;2023-06-05T02:22:58;11.20;99.90
53146;DHT22;39042;53.150;5.898;2023-06-05T02:25:24;11.20;99.90
53146;DHT22;39042;53.150;5.898;2023-06-05T02:27:53;11.20;99.90
53146;DHT22;39042;53.150;5.898;2023-06-05T02:30:19;11.20;99.90
53146;DHT22;39042;53.150;5.898;2023-06-05T02:32:46;11.20;99.90
53146;DHT22;39042;53.150;5.898;2023-06-05T02:35:12;11.10;99.90
53146;DHT22;39042;53.150;5.898;2023-06-05T02:37:40;11.10;99.90
53146;DHT22;39042;53.150;5.898;2023-06-05T02:40:11;11.10;99.90
53146;DHT22;39042;53.150;5.898;2023-06-05T02:42:38;11.10;99.90
53146;DHT22;39042;53.150;5.898;2023-06-05T02:45:05;11.10;99.90
53146;DHT22;39042;53.150;5.898;2023-06-05T02:47:32;11.10;99.90
53146;DHT22;39042;53.150;5.898;2023-06-05T02:49:59;11.10;99.90
53146;DHT22;39042;53.150;5.898;2023-06-05T02:52:25;11.10;99.90
53146;DHT22;39042;53.150;5.898;2023-06-05T02:54:52;11.00;99.90
53146;DHT22;39042;53.150;5.898;2023-06-05T02:57:18;11.00;99.90
53146;DHT22;39042;53.150;5.898;2023-06-05T02:59:45;11.00;99.90
53146;DHT22;39042;53.150;5.898;2023-06-05T03:02:15;11.00;99.90
53146;DHT22;39042;53.150;5.898;2023-06-05T03:04:44;11.10;99.90
53146;DHT22;39042;53.150;5.898;2023-06-05T03:07:16;11.10;99.90
53146;DHT22;39042;53.150;5.898;2023-06-05T03:09:43;11.10;99.90
53146;DHT22;39042;53.150;5.898;2023-06-05T03:12:09;11.10;99.90
53146;DHT22;39042;53.150;5.898;2023-06-05T03:14:36;11.20;99.90
53146;DHT22;39042;53.150;5.898;2023-06-05T03:17:01;11.20;99.90
53146;DHT22;39042;53.150;5.898;2023-06-05T03:19:29;11.20;99.90
53146;DHT22;39042;53.150;5.898;2023-06-05T03:22:00;11.20;99.90
53146;DHT22;39042;53.150;5.898;2023-06-05T03:24:26;11.20;99.90
53146;DHT22;39042;53.150;5.898;2023-06-05T03:26:57;11.20;99.90
53146;DHT22;39042;53.150;5.898;2023-06-05T03:29:23;11.30;99.90
53146;DHT22;39042;53.150;5.898;2023-06-05T03:31:50;11.30;99.90
53146;DHT22;39042;53.150;5.898;2023-06-05T03:34:16;11.30;99.90
53146;DHT22;39042;53.150;5.898;2023-06-05T03:36:42;11.30;99.90
53146;DHT22;39042;53.150;5.898;2023-06-05T03:39:10;11.30;99.90
53146;DHT22;39042;53.150;5.898;2023-06-05T03:41:39;11.30;99.90
53146;DHT22;39042;53.150;5.898;2023-06-05T03:44:05;11.30;99.90
53146;DHT22;39042;53.150;5.898;2023-06-05T03:46:33;11.30;99.90
53146;DHT22;39042;53.150;5.898;2023-06-05T03:49:00;11.30;99.90
53146;DHT22;39042;53.150;5.898;2023-06-05T03:51:31;11.40;99.90
53146;DHT22;39042;53.150;5.898;2023-06-05T03:53:58;11.40;99.90
53146;DHT22;39042;53.150;5.898;2023-06-05T03:56:25;11.40;99.90
53146;DHT22;39042;53.150;5.898;2023-06-05T03:58:57;11.40;99.90
53146;DHT22;39042;53.150;5.898;2023-06-05T04:01:24;11.40;99.90
53146;DHT22;39042;53.150;5.898;2023-06-05T04:03:50;11.40;99.90
53146;DHT22;39042;53.150;5.898;2023-06-05T04:06:16;11.40;99.90
53146;DHT22;39042;53.150;5.898;2023-06-05T04:08:42;11.50;99.90
53146;DHT22;39042;53.150;5.898;2023-06-05T04:11:08;11.50;99.90
53146;DHT22;39042;53.150;5.898;2023-06-05T04:13:33;11.50;99.90
53146;DHT22;39042;53.150;5.898;2023-06-05T04:16:03;11.50;99.90
53146;DHT22;39042;53.150;5.898;2023-06-05T04:18:29;11.50;99.90
53146;DHT22;39042;53.150;5.898;2023-06-05T04:20:55;11.50;99.90
53146;DHT22;39042;53.150;5.898;2023-06-05T04:23:21;11.60;99.90
53146;DHT22;39042;53.150;5.898;2023-06-05T04:25:48;11.60;99.90
53146;DHT22;39042;53.150;5.898;2023-06-05T04:28:14;11.60;99.90
53146;DHT22;39042;53.150;5.898;2023-06-05T04:30:41;11.60;99.90
53146;DHT22;39042;53.150;5.898;2023-06-05T04:33:07;11.70;99.90
53146;DHT22;39042;53.150;5.898;2023-06-05T04:35:36;11.70;99.90
53146;DHT22;39042;53.150;5.898;2023-06-05T04:38:02;11.70;99.90
53146;DHT22;39042;53.150;5.898;2023-06-05T04:40:30;11.70;99.90
53146;DHT22;39042;53.150;5.898;2023-06-05T04:42:57;11.80;99.90
53146;DHT22;39042;53.150;5.898;2023-06-05T04:45:24;11.80;99.90
53146;DHT22;39042;53.150;5.898;2023-06-05T04:47:50;11.80;99.90
53146;DHT22;39042;53.150;5.898;2023-06-05T04:50:27;11.90;99.90
53146;DHT22;39042;53.150;5.898;2023-06-05T04:53:03;11.90;99.90
53146;DHT22;39042;53.150;5.898;2023-06-05T04:55:31;12.00;99.90
53146;DHT22;39042;53.150;5.898;2023-06-05T04:57:57;11.90;99.90
53146;DHT22;39042;53.150;5.898;2023-06-05T05:00:27;12.00;99.90
53146;DHT22;39042;53.150;5.898;2023-06-05T05:02:53;12.00;99.90
53146;DHT22;39042;53.150;5.898;2023-06-05T05:05:20;12.10;99.90
53146;DHT22;39042;53.150;5.898;2023-06-05T05:07:48;12.10;99.90
53146;DHT22;39042;53.150;5.898;2023-06-05T05:10:14;12.20;99.90
53146;DHT22;39042;53.150;5.898;2023-06-05T05:12:41;12.20;99.90
53146;DHT22;39042;53.150;5.898;2023-06-05T05:15:07;12.30;99.90
53146;DHT22;39042;53.150;5.898;2023-06-05T05:17:33;12.30;99.90
53146;DHT22;39042;53.150;5.898;2023-06-05T05:20:00;12.40;99.90
53146;DHT22;39042;53.150;5.898;2023-06-05T05:22:26;12.50;99.90
53146;DHT22;39042;53.150;5.898;2023-06-05T05:24:54;12.50;99.90
53146;DHT22;39042;53.150;5.898;2023-06-05T05:27:20;12.60;99.90
53146;DHT22;39042;53.150;5.898;2023-06-05T05:29:46;12.70;99.90
53146;DHT22;39042;53.150;5.898;2023-06-05T05:32:12;12.70;99.90
53146;DHT22;39042;53.150;5.898;2023-06-05T05:34:38;12.80;99.90
53146;DHT22;39042;53.150;5.898;2023-06-05T05:37:04;12.90;99.90
53146;DHT22;39042;53.150;5.898;2023-06-05T05:39:30;12.90;99.90
53146;DHT22;39042;53.150;5.898;2023-06-05T05:41:56;12.90;99.90
53146;DHT22;39042;53.150;5.898;2023-06-05T05:44:22;13.00;99.90
53146;DHT22;39042;53.150;5.898;2023-06-05T05:46:48;13.10;99.90
53146;DHT22;39042;53.150;5.898;2023-06-05T05:49:14;13.00;99.90
53146;DHT22;39042;53.150;5.898;2023-06-05T05:51:40;13.10;99.90
53146;DHT22;39042;53.150;5.898;2023-06-05T05:54:06;13.10;99.90
53146;DHT22;39042;53.150;5.898;2023-06-05T05:56:31;13.20;99.90
53146;DHT22;39042;53.150;5.898;2023-06-05T05:58:59;13.30;99.90
53146;DHT22;39042;53.150;5.898;2023-06-05T06:01:25;13.30;99.90
53146;DHT22;39042;53.150;5.898;2023-06-05T06:03:51;13.50;99.90
53146;DHT22;39042;53.150;5.898;2023-06-05T06:06:17;13.50;99.90
53146;DHT22;39042;53.150;5.898;2023-06-05T06:08:43;13.50;99.90
53146;DHT22;39042;53.150;5.898;2023-06-05T06:11:09;13.60;99.90
53146;DHT22;39042;53.150;5.898;2023-06-05T06:13:35;13.50;99.90
53146;DHT22;39042;53.150;5.898;2023-06-05T06:16:01;13.50;99.90
53146;DHT22;39042;53.150;5.898;2023-06-05T06:18:27;13.50;99.90
53146;DHT22;39042;53.150;5.898;2023-06-05T06:20:53;13.60;99.90
53146;DHT22;39042;53.150;5.898;2023-06-05T06:23:19;13.70;99.90
53146;DHT22;39042;53.150;5.898;2023-06-05T06:25:45;13.80;99.90
53146;DHT22;39042;53.150;5.898;2023-06-05T06:28:11;13.80;99.90
53146;DHT22;39042;53.150;5.898;2023-06-05T06:30:37;13.80;99.90
53146;DHT22;39042;53.150;5.898;2023-06-05T06:33:03;13.80;99.90
53146;DHT22;39042;53.150;5.898;2023-06-05T06:35:30;13.80;99.90
53146;DHT22;39042;53.150;5.898;2023-06-05T06:37:57;13.80;99.90
53146;DHT22;39042;53.150;5.898;2023-06-05T06:40:24;13.70;99.90
53146;DHT22;39042;53.150;5.898;2023-06-05T06:42:50;13.70;99.90
53146;DHT22;39042;53.150;5.898;2023-06-05T06:45:28;13.80;99.90
53146;DHT22;39042;53.150;5.898;2023-06-05T06:47:54;13.80;99.90
53146;DHT22;39042;53.150;5.898;2023-06-05T06:50:20;14.00;99.90
53146;DHT22;39042;53.150;5.898;2023-06-05T06:52:45;14.00;99.90
53146;DHT22;39042;53.150;5.898;2023-06-05T06:55:11;14.10;99.90
53146;DHT22;39042;53.150;5.898;2023-06-05T06:57:37;14.10;99.90
53146;DHT22;39042;53.150;5.898;2023-06-05T07:00:04;14.10;99.90
53146;DHT22;39042;53.150;5.898;2023-06-05T07:02:33;14.20;99.90
53146;DHT22;39042;53.150;5.898;2023-06-05T07:04:59;14.30;99.90
53146;DHT22;39042;53.150;5.898;2023-06-05T07:07:25;14.30;99.90
53146;DHT22;39042;53.150;5.898;2023-06-05T07:09:51;14.40;99.90
53146;DHT22;39042;53.150;5.898;2023-06-05T07:12:17;14.40;99.90
53146;DHT22;39042;53.150;5.898;2023-06-05T07:14:45;14.30;99.90
53146;DHT22;39042;53.150;5.898;2023-06-05T07:17:11;14.30;99.90
53146;DHT22;39042;53.150;5.898;2023-06-05T07:19:37;14.30;99.90
53146;DHT22;39042;53.150;5.898;2023-06-05T07:22:04;14.40;99.90
53146;DHT22;39042;53.150;5.898;2023-06-05T07:24:31;14.40;99.90
53146;DHT22;39042;53.150;5.898;2023-06-05T07:26:59;14.60;99.90
53146;DHT22;39042;53.150;5.898;2023-06-05T07:29:25;14.70;99.90
53146;DHT22;39042;53.150;5.898;2023-06-05T07:31:52;14.80;99.90
53146;DHT22;39042;53.150;5.898;2023-06-05T07:34:19;14.80;99.90
53146;DHT22;39042;53.150;5.898;2023-06-05T07:36:45;15.00;99.90
53146;DHT22;39042;53.150;5.898;2023-06-05T07:39:12;15.10;99.90
53146;DHT22;39042;53.150;5.898;2023-06-05T07:41:38;15.20;99.90
53146;DHT22;39042;53.150;5.898;2023-06-05T07:44:09;15.20;99.90
53146;DHT22;39042;53.150;5.898;2023-06-05T07:46:36;15.20;99.90
53146;DHT22;39042;53.150;5.898;2023-06-05T07:49:02;15.30;99.90
53146;DHT22;39042;53.150;5.898;2023-06-05T07:51:28;15.50;99.90
53146;DHT22;39042;53.150;5.898;2023-06-05T07:53:54;15.70;99.90
53146;DHT22;39042;53.150;5.898;2023-06-05T07:56:20;15.60;99.90
53146;DHT22;39042;53.150;5.898;2023-06-05T07:58:49;15.70;99.90
53146;DHT22;39042;53.150;5.898;2023-06-05T08:01:17;15.60;99.90
53146;DHT22;39042;53.150;5.898;2023-06-05T08:03:43;15.70;99.90
53146;DHT22;39042;53.150;5.898;2023-06-05T08:06:10;15.80;99.90
53146;DHT22;39042;53.150;5.898;2023-06-05T08:08:36;16.00;99.90
53146;DHT22;39042;53.150;5.898;2023-06-05T08:11:02;16.10;99.90
53146;DHT22;39042;53.150;5.898;2023-06-05T08:13:28;16.30;99.90
53146;DHT22;39042;53.150;5.898;2023-06-05T08:15:55;16.30;99.90
53146;DHT22;39042;53.150;5.898;2023-06-05T08:18:21;16.30;99.90
53146;DHT22;39042;53.150;5.898;2023-06-05T08:20:47;16.30;99.90
53146;DHT22;39042;53.150;5.898;2023-06-05T08:23:13;16.30;99.90
53146;DHT22;39042;53.150;5.898;2023-06-05T08:25:39;16.30;99.90
53146;DHT22;39042;53.150;5.898;2023-06-05T08:28:05;16.20;99.90
53146;DHT22;39042;53.150;5.898;2023-06-05T08:30:31;16.20;99.90
53146;DHT22;39042;53.150;5.898;2023-06-05T08:32:57;16.30;99.90
53146;DHT22;39042;53.150;5.898;2023-06-05T08:35:23;16.40;99.90
53146;DHT22;39042;53.150;5.898;2023-06-05T08:37:48;16.50;99.90
53146;DHT22;39042;53.150;5.898;2023-06-05T08:40:15;16.50;99.90
53146;DHT22;39042;53.150;5.898;2023-06-05T08:42:42;16.50;99.90
53146;DHT22;39042;53.150;5.898;2023-06-05T08:45:08;16.50;99.90
53146;DHT22;39042;53.150;5.898;2023-06-05T08:47:38;16.50;99.90
53146;DHT22;39042;53.150;5.898;2023-06-05T08:50:07;16.50;99.90
53146;DHT22;39042;53.150;5.898;2023-06-05T08:52:36;16.50;99.90
53146;DHT22;39042;53.150;5.898;2023-06-05T08:55:04;16.50;99.90
53146;DHT22;39042;53.150;5.898;2023-06-05T08:57:32;16.50;99.90
53146;DHT22;39042;53.150;5.898;2023-06-05T09:00:01;16.60;99.90
53146;DHT22;39042;53.150;5.898;2023-06-05T09:02:33;16.70;99.90
53146;DHT22;39042;53.150;5.898;2023-06-05T09:04:59;16.60;99.90
53146;DHT22;39042;53.150;5.898;2023-06-05T09:07:28;16.70;99.90
53146;DHT22;39042;53.150;5.898;2023-06-05T09:09:54;16.80;99.90
53146;DHT22;39042;53.150;5.898;2023-06-05T09:12:20;16.80;99.90
53146;DHT22;39042;53.150;5.898;2023-06-05T09:14:46;16.70;99.90
53146;DHT22;39042;53.150;5.898;2023-06-05T09:17:13;16.60;99.90
53146;DHT22;39042;53.150;5.898;2023-06-05T09:19:41;16.50;99.90
53146;DHT22;39042;53.150;5.898;2023-06-05T09:22:09;16.50;99.90
53146;DHT22;39042;53.150;5.898;2023-06-05T09:24:36;16.30;99.90
53146;DHT22;39042;53.150;5.898;2023-06-05T09:27:04;16.40;99.90
53146;DHT22;39042;53.150;5.898;2023-06-05T09:29:41;16.40;99.90
53146;DHT22;39042;53.150;5.898;2023-06-05T09:32:16;16.40;99.90
53146;DHT22;39042;53.150;5.898;2023-06-05T09:34:42;16.50;99.90
53146;DHT22;39042;53.150;5.898;2023-06-05T09:37:11;16.50;99.90
53146;DHT22;39042;53.150;5.898;2023-06-05T09:39:39;16.50;99.90
53146;DHT22;39042;53.150;5.898;2023-06-05T09:42:05;16.60;99.90
53146;DHT22;39042;53.150;5.898;2023-06-05T09:44:33;16.60;99.90
53146;DHT22;39042;53.150;5.898;2023-06-05T09:47:06;16.60;99.90
53146;DHT22;39042;53.150;5.898;2023-06-05T09:52:08;16.60;99.90
53146;DHT22;39042;53.150;5.898;2023-06-05T09:54:37;16.60;99.90
53146;DHT22;39042;53.150;5.898;2023-06-05T09:57:05;16.50;99.90
53146;DHT22;39042;53.150;5.898;2023-06-05T09:59:32;16.40;99.90
53146;DHT22;39042;53.150;5.898;2023-06-05T10:02:03;16.40;99.90
53146;DHT22;39042;53.150;5.898;2023-06-05T10:04:40;16.50;99.90
53146;DHT22;39042;53.150;5.898;2023-06-05T10:07:07;16.60;99.90
53146;DHT22;39042;53.150;5.898;2023-06-05T10:09:35;16.70;99.90
53146;DHT22;39042;53.150;5.898;2023-06-05T10:12:03;16.80;99.90
53146;DHT22;39042;53.150;5.898;2023-06-05T10:14:29;16.90;99.90
53146;DHT22;39042;53.150;5.898;2023-06-05T10:16:55;17.10;99.90
53146;DHT22;39042;53.150;5.898;2023-06-05T10:19:23;17.10;99.90
53146;DHT22;39042;53.150;5.898;2023-06-05T10:21:51;17.00;99.90
53146;DHT22;39042;53.150;5.898;2023-06-05T10:30:09;17.00;99.90
53146;DHT22;39042;53.150;5.898;2023-06-05T10:35:32;16.80;99.90
53146;DHT22;39042;53.150;5.898;2023-06-05T10:38:21;16.70;99.90
53146;DHT22;39042;53.150;5.898;2023-06-05T10:41:01;16.70;99.90
53146;DHT22;39042;53.150;5.898;2023-06-05T10:45:58;16.70;99.90
53146;DHT22;39042;53.150;5.898;2023-06-05T10:51:41;16.90;99.90
53146;DHT22;39042;53.150;5.898;2023-06-05T10:56:59;16.90;99.90
53146;DHT22;39042;53.150;5.898;2023-06-05T10:59:31;17.00;99.90
53146;DHT22;39042;53.150;5.898;2023-06-05T11:07:26;16.90;99.90
53146;DHT22;39042;53.150;5.898;2023-06-05T11:20:48;17.00;99.90
53146;DHT22;39042;53.150;5.898;2023-06-05T11:27:51;16.90;99.90
53146;DHT22;39042;53.150;5.898;2023-06-05T11:30:22;16.90;99.90
53146;DHT22;39042;53.150;5.898;2023-06-05T11:32:50;17.00;99.90
53146;DHT22;39042;53.150;5.898;2023-06-05T11:35:21;17.00;99.90
53146;DHT22;39042;53.150;5.898;2023-06-05T11:37:47;17.00;99.90
53146;DHT22;39042;53.150;5.898;2023-06-05T11:40:24;17.00;99.90
53146;DHT22;39042;53.150;5.898;2023-06-05T11:42:50;17.10;99.90
53146;DHT22;39042;53.150;5.898;2023-06-05T11:45:16;17.10;99.90
53146;DHT22;39042;53.150;5.898;2023-06-05T11:47:42;17.10;99.90
53146;DHT22;39042;53.150;5.898;2023-06-05T11:50:14;17.10;99.90
53146;DHT22;39042;53.150;5.898;2023-06-05T11:52:43;17.10;99.90
53146;DHT22;39042;53.150;5.898;2023-06-05T11:57:45;17.20;99.90
53146;DHT22;39042;53.150;5.898;2023-06-05T12:00:12;17.30;99.90
53146;DHT22;39042;53.150;5.898;2023-06-05T12:02:42;17.30;99.90
53146;DHT22;39042;53.150;5.898;2023-06-05T12:05:09;17.40;99.90
53146;DHT22;39042;53.150;5.898;2023-06-05T12:07:36;17.40;99.90
53146;DHT22;39042;53.150;5.898;2023-06-05T12:10:11;17.40;99.90
53146;DHT22;39042;53.150;5.898;2023-06-05T12:15:18;17.40;99.90
53146;DHT22;39042;53.150;5.898;2023-06-05T12:17:51;17.40;99.90
53146;DHT22;39042;53.150;5.898;2023-06-05T12:20:18;17.40;99.90
53146;DHT22;39042;53.150;5.898;2023-06-05T12:22:45;17.30;99.90
53146;DHT22;39042;53.150;5.898;2023-06-05T12:25:16;17.40;99.90
53146;DHT22;39042;53.150;5.898;2023-06-05T12:27:42;17.50;99.90
53146;DHT22;39042;53.150;5.898;2023-06-05T12:30:10;17.50;99.90
53146;DHT22;39042;53.150;5.898;2023-06-05T12:32:36;17.50;99.90
53146;DHT22;39042;53.150;5.898;2023-06-05T12:35:05;17.50;99.90
53146;DHT22;39042;53.150;5.898;2023-06-05T12:37:32;17.50;99.90
53146;DHT22;39042;53.150;5.898;2023-06-05T12:40:00;17.40;99.90
53146;DHT22;39042;53.150;5.898;2023-06-05T12:42:27;17.30;99.90
53146;DHT22;39042;53.150;5.898;2023-06-05T12:44:54;17.30;99.90
53146;DHT22;39042;53.150;5.898;2023-06-05T12:47:20;17.20;99.90
53146;DHT22;39042;53.150;5.898;2023-06-05T12:49:46;17.20;99.90
53146;DHT22;39042;53.150;5.898;2023-06-05T12:52:12;17.20;99.90
53146;DHT22;39042;53.150;5.898;2023-06-05T12:54:38;17.30;99.90
53146;DHT22;39042;53.150;5.898;2023-06-05T12:57:05;17.30;99.90
53146;DHT22;39042;53.150;5.898;2023-06-05T12:59:34;17.20;99.90
53146;DHT22;39042;53.150;5.898;2023-06-05T13:02:00;17.20;99.90
53146;DHT22;39042;53.150;5.898;2023-06-05T13:04:26;17.20;99.90
53146;DHT22;39042;53.150;5.898;2023-06-05T13:06:52;17.30;99.90
53146;DHT22;39042;53.150;5.898;2023-06-05T13:09:20;17.40;99.90
53146;DHT22;39042;53.150;5.898;2023-06-05T13:11:46;17.50;99.90
53146;DHT22;39042;53.150;5.898;2023-06-05T13:14:12;17.50;99.90
53146;DHT22;39042;53.150;5.898;2023-06-05T13:16:38;17.40;99.90
53146;DHT22;39042;53.150;5.898;2023-06-05T13:19:03;17.40;99.90
53146;DHT22;39042;53.150;5.898;2023-06-05T13:21:29;17.40;99.90
53146;DHT22;39042;53.150;5.898;2023-06-05T13:23:55;17.40;99.90
53146;DHT22;39042;53.150;5.898;2023-06-05T13:26:21;17.40;99.90
53146;DHT22;39042;53.150;5.898;2023-06-05T13:28:47;17.40;99.90
53146;DHT22;39042;53.150;5.898;2023-06-05T13:31:13;17.40;99.90
53146;DHT22;39042;53.150;5.898;2023-06-05T13:33:40;17.30;99.90
53146;DHT22;39042;53.150;5.898;2023-06-05T13:36:06;17.20;99.90
53146;DHT22;39042;53.150;5.898;2023-06-05T13:38:34;17.20;99.90
53146;DHT22;39042;53.150;5.898;2023-06-05T13:41:03;17.20;99.90
53146;DHT22;39042;53.150;5.898;2023-06-05T13:43:30;17.10;99.90
53146;DHT22;39042;53.150;5.898;2023-06-05T13:45:56;17.00;99.90
53146;DHT22;39042;53.150;5.898;2023-06-05T13:48:21;17.00;99.90
53146;DHT22;39042;53.150;5.898;2023-06-05T13:50:47;16.90;99.90
53146;DHT22;39042;53.150;5.898;2023-06-05T13:53:13;17.00;99.90
53146;DHT22;39042;53.150;5.898;2023-06-05T13:55:39;16.90;99.90
53146;DHT22;39042;53.150;5.898;2023-06-05T13:58:05;17.00;99.90
53146;DHT22;39042;53.150;5.898;2023-06-05T14:00:32;16.90;99.90
53146;DHT22;39042;53.150;5.898;2023-06-05T14:02:59;17.00;99.90
53146;DHT22;39042;53.150;5.898;2023-06-05T14:05:25;16.90;99.90
53146;DHT22;39042;53.150;5.898;2023-06-05T14:07:52;16.90;99.90
53146;DHT22;39042;53.150;5.898;2023-06-05T14:10:20;16.80;99.90
53146;DHT22;39042;53.150;5.898;2023-06-05T14:12:46;16.80;99.90
53146;DHT22;39042;53.150;5.898;2023-06-05T14:15:12;16.80;99.90
53146;DHT22;39042;53.150;5.898;2023-06-05T14:17:38;16.80;99.90
53146;DHT22;39042;53.150;5.898;2023-06-05T14:20:04;16.80;99.90
53146;DHT22;39042;53.150;5.898;2023-06-05T14:22:30;16.80;99.90
53146;DHT22;39042;53.150;5.898;2023-06-05T14:24:56;16.80;99.90
53146;DHT22;39042;53.150;5.898;2023-06-05T14:27:22;16.80;99.90
53146;DHT22;39042;53.150;5.898;2023-06-05T14:29:48;16.70;99.90
53146;DHT22;39042;53.150;5.898;2023-06-05T14:32:14;16.60;99.90
53146;DHT22;39042;53.150;5.898;2023-06-05T14:34:39;16.60;99.90
53146;DHT22;39042;53.150;5.898;2023-06-05T14:37:05;16.60;99.90
53146;DHT22;39042;53.150;5.898;2023-06-05T14:39:31;16.60;99.90
53146;DHT22;39042;53.150;5.898;2023-06-05T14:41:57;16.60;99.90
53146;DHT22;39042;53.150;5.898;2023-06-05T14:44:23;16.50;99.90
53146;DHT22;39042;53.150;5.898;2023-06-05T14:46:48;16.40;99.90
53146;DHT22;39042;53.150;5.898;2023-06-05T14:49:14;16.40;99.90
53146;DHT22;39042;53.150;5.898;2023-06-05T14:51:40;16.40;99.90
53146;DHT22;39042;53.150;5.898;2023-06-05T14:54:06;16.40;99.90
53146;DHT22;39042;53.150;5.898;2023-06-05T14:56:32;16.40;99.90
53146;DHT22;39042;53.150;5.898;2023-06-05T14:58:57;16.40;99.90
53146;DHT22;39042;53.150;5.898;2023-06-05T15:01:24;16.30;99.90
53146;DHT22;39042;53.150;5.898;2023-06-05T15:03:50;16.30;99.90
53146;DHT22;39042;53.150;5.898;2023-06-05T15:06:15;16.30;99.90
53146;DHT22;39042;53.150;5.898;2023-06-05T15:08:41;16.30;99.90
53146;DHT22;39042;53.150;5.898;2023-06-05T15:11:07;16.40;99.90
53146;DHT22;39042;53.150;5.898;2023-06-05T15:13:33;16.30;99.90
53146;DHT22;39042;53.150;5.898;2023-06-05T15:15:59;16.30;99.90
53146;DHT22;39042;53.150;5.898;2023-06-05T15:18:25;16.30;99.90
53146;DHT22;39042;53.150;5.898;2023-06-05T15:20:51;16.30;99.90
53146;DHT22;39042;53.150;5.898;2023-06-05T15:23:17;16.30;99.90
53146;DHT22;39042;53.150;5.898;2023-06-05T15:25:43;16.20;99.90
53146;DHT22;39042;53.150;5.898;2023-06-05T15:28:09;16.20;99.90
53146;DHT22;39042;53.150;5.898;2023-06-05T15:30:35;16.10;99.90
53146;DHT22;39042;53.150;5.898;2023-06-05T15:33:01;16.20;99.90
53146;DHT22;39042;53.150;5.898;2023-06-05T15:35:28;16.20;99.90
53146;DHT22;39042;53.150;5.898;2023-06-05T15:37:54;16.20;99.90
53146;DHT22;39042;53.150;5.898;2023-06-05T15:40:20;16.10;99.90
53146;DHT22;39042;53.150;5.898;2023-06-05T15:42:47;16.10;99.90
53146;DHT22;39042;53.150;5.898;2023-06-05T15:45:29;16.20;99.90
53146;DHT22;39042;53.150;5.898;2023-06-05T15:47:54;16.30;99.90
53146;DHT22;39042;53.150;5.898;2023-06-05T15:50:20;16.20;99.90
53146;DHT22;39042;53.150;5.898;2023-06-05T15:52:46;16.10;99.90
53146;DHT22;39042;53.150;5.898;2023-06-05T15:55:12;16.10;99.90
53146;DHT22;39042;53.150;5.898;2023-06-05T15:57:38;16.00;99.90
53146;DHT22;39042;53.150;5.898;2023-06-05T16:00:04;16.00;99.90
53146;DHT22;39042;53.150;5.898;2023-06-05T16:02:33;16.00;99.90
53146;DHT22;39042;53.150;5.898;2023-06-05T16:04:59;16.00;99.90
53146;DHT22;39042;53.150;5.898;2023-06-05T16:07:24;16.10;99.90
53146;DHT22;39042;53.150;5.898;2023-06-05T16:09:50;16.10;99.90
53146;DHT22;39042;53.150;5.898;2023-06-05T16:12:16;16.10;99.90
53146;DHT22;39042;53.150;5.898;2023-06-05T16:14:43;16.10;99.90
53146;DHT22;39042;53.150;5.898;2023-06-05T16:17:10;16.10;99.90